Hlavní strana
METAR-TAF:

METAR-TAF

Letiště :

Magnitogorsk, Rusko

zeměpisná šířka: 53-23-36N, zeměpisná délka: 058-45-24E, výška: 436 m

Aktuální stav počasí

Zpráva byla vytvořena před 20 minutami, v 13:00 UTC
Východní vítr 8 kt
Teplota 23°C
Vlhkost vzduchu 29%
Tlak 1027 hPa
Viditelnost 10 km a více

METAR: USCM 261300Z 08004MPS 9999 NSC 23/04 Q1027 R36/090060 NOSIG RMK QFE732

Čas: 18:20 (13:20 UTC)

Předpověď počasí

Zpráva byla vytvořena před 2 hodinami a 20 minutami, v 11:00 UTC
Předpověď platná od 26 v 12 UTC do 26 v 21 UTC
Východoseverovýchodní vítr 10 kt s nárazy do 19 kt
Viditelnost 10 km a více
Dočasný
od 26 v 12 UTC do 26 v 21 UTC
Východní vítr 16 kt s nárazy do 29 kt
Polojasno ve výšce 4000 ft

TAF: USCM 261100Z 2612/2621 06005G10MPS 9999 NSC TEMPO 2612/2621 08008G15MPS SCT040

Stav a předpovědi počasí z více než 4 000 letišť (zprávy METAR a TAF).

Červené a žluté tečky na mapě představují dostupné meteorologické stanice.

Když kurzor umístíte na tečku, zobrazí se název stanice.

Pak kliknutím zobrazíte stav a předpověď počasí.

Chcete-li změnit mapu, kliknutím na zelené tlačítko se znaménkem +mapu přiblížíte, kliknutím na zelené tlačítko se znaménkem – mapu oddálíte a kliknutím na zelené šipky přejdete na sousední mapy.


METAR-TAF: